Time;durP1;ratioP1;P1;durP2;ratioP2;P2;SDS_P1;SDS_P2;PMS_P1;PMS_P2;Temp;Humidity;BMP_temperature;BMP_pressure;BME280_temperature;BME280_humidity;BME280_pressure;Samples;Min_cycle;Max_cycle;Signal;HPM_P1;HPM_P2
2022/06/23 00:01:27;;;;;;;21.87;15.63;;;18.30;99.90;;;;;;5076428;28;20622;-73
2022/06/23 00:03:56;;;;;;;21.80;14.83;;;18.20;99.90;;;;;;5076974;28;20708;-73
2022/06/23 00:06:41;;;;;;;16.33;14.63;;;18.30;99.90;;;;;;5058342;28;20642;-73
2022/06/23 00:09:36;;;;;;;18.73;15.23;;;18.20;99.90;;;;;;5076372;28;20665;-73
2022/06/23 00:12:18;;;;;;;17.00;14.50;;;18.20;99.90;;;;;;5077521;28;20598;-73
2022/06/23 00:14:55;;;;;;;17.73;15.20;;;18.20;99.90;;;;;;5077449;28;20574;-73
2022/06/23 00:17:44;;;;;;;20.97;13.67;;;18.20;99.90;;;;;;5076160;28;20642;-74
2022/06/23 00:20:10;;;;;;;20.50;15.07;;;18.20;99.90;;;;;;5076777;28;20578;-73
2022/06/23 00:22:40;;;;;;;19.63;15.17;;;18.10;99.90;;;;;;5077042;28;20660;-73
2022/06/23 00:25:08;;;;;;;22.70;15.17;;;18.00;99.90;;;;;;5077228;28;20943;-73
2022/06/23 00:27:38;;;;;;;24.80;16.57;;;18.00;99.90;;;;;;5076670;28;20654;-74
2022/06/23 00:30:20;;;;;;;24.17;16.10;;;18.00;99.90;;;;;;5076253;28;20728;-73
2022/06/23 00:32:47;;;;;;;21.03;15.33;;;18.00;99.90;;;;;;5076756;28;20624;-73
2022/06/23 00:35:16;;;;;;;21.83;15.47;;;18.00;99.90;;;;;;5075466;28;20606;-73
2022/06/23 00:37:51;;;;;;;25.20;16.40;;;17.90;99.90;;;;;;5076177;28;20683;-73
2022/06/23 00:40:21;;;;;;;19.43;13.90;;;17.90;99.90;;;;;;5074891;28;20628;-73
2022/06/23 00:42:58;;;;;;;26.30;15.40;;;18.00;99.90;;;;;;5076345;28;20610;-73
2022/06/23 00:45:40;;;;;;;17.83;16.13;;;18.00;99.90;;;;;;5076947;28;20582;-73
2022/06/23 00:48:40;;;;;;;29.70;16.50;;;17.90;99.90;;;;;;5076655;28;20662;-73
2022/06/23 00:51:22;;;;;;;21.30;15.70;;;17.90;99.90;;;;;;5076048;28;20611;-73
2022/06/23 00:54:10;;;;;;;22.33;15.10;;;17.80;99.90;;;;;;5075791;28;20637;-73
2022/06/23 00:56:50;;;;;;;20.03;15.00;;;17.80;99.90;;;;;;5075800;28;21105;-72
2022/06/23 00:59:29;;;;;;;26.03;14.43;;;17.80;99.90;;;;;;5075838;28;20608;-73
2022/06/23 01:02:10;;;;;;;17.23;14.80;;;17.70;99.90;;;;;;5057538;28;20972;-73
2022/06/23 01:04:49;;;;;;;19.73;15.33;;;17.60;99.90;;;;;;5075134;28;20610;-73
2022/06/23 01:07:44;;;;;;;15.60;14.00;;;17.60;99.90;;;;;;5057282;28;20662;-73
2022/06/23 01:10:26;;;;;;;17.40;12.97;;;17.50;99.90;;;;;;5076078;28;20606;-73
2022/06/23 01:13:17;;;;;;;16.27;14.57;;;17.40;99.90;;;;;;5075814;28;20578;-73
2022/06/23 01:15:50;;;;;;;21.27;15.00;;;17.40;99.90;;;;;;5075878;28;21150;-73
2022/06/23 01:18:41;;;;;;;16.10;13.97;;;17.50;99.90;;;;;;5075733;28;20547;-73
2022/06/23 01:21:18;;;;;;;14.87;13.53;;;17.50;99.90;;;;;;5074884;28;21140;-73
2022/06/23 01:24:07;;;;;;;15.23;13.43;;;17.50;99.90;;;;;;5075436;28;20960;-73
2022/06/23 01:26:33;;;;;;;14.27;12.80;;;17.40;99.90;;;;;;5075322;28;20603;-73
2022/06/23 01:29:22;;;;;;;12.70;11.47;;;17.30;99.90;;;;;;5075468;28;20998;-73
2022/06/23 01:32:04;;;;;;;12.53;11.00;;;17.20;99.90;;;;;;5075398;28;20675;-73
2022/06/23 01:35:14;;;;;;;14.97;13.03;;;17.10;99.90;;;;;;5075188;28;20579;-73
2022/06/23 01:38:13;;;;;;;14.63;13.00;;;17.10;99.90;;;;;;5063988;28;20626;-72
2022/06/23 01:40:47;;;;;;;14.87;13.40;;;17.10;99.90;;;;;;5074472;28;20713;-72
2022/06/23 01:43:20;;;;;;;13.40;12.07;;;17.10;99.90;;;;;;5075372;28;20546;-72
2022/06/23 01:45:59;;;;;;;14.97;11.93;;;17.10;99.90;;;;;;5075435;28;21001;-72
2022/06/23 01:48:53;;;;;;;12.53;11.23;;;17.20;99.90;;;;;;5075192;28;20665;-71
2022/06/23 01:51:38;;;;;;;12.53;11.43;;;17.20;99.90;;;;;;5074029;28;20573;-72
2022/06/23 01:54:21;;;;;;;13.67;11.80;;;17.30;99.90;;;;;;5074533;28;20948;-72
2022/06/23 01:57:05;;;;;;;13.13;11.53;;;17.40;99.90;;;;;;5073846;28;20618;-72
2022/06/23 02:00:03;;;;;;;13.77;11.30;;;17.30;99.90;;;;;;5074550;28;20618;-72
2022/06/23 02:03:06;;;;;;;12.73;11.63;;;17.40;99.90;;;;;;5074045;28;20634;-72
2022/06/23 02:05:46;;;;;;;12.80;11.60;;;17.30;99.90;;;;;;5074717;28;20628;-72
2022/06/23 02:08:30;;;;;;;14.43;11.90;;;17.20;99.90;;;;;;5074216;28;20630;-72
2022/06/23 02:10:59;;;;;;;12.60;11.40;;;17.20;99.90;;;;;;5074524;28;20567;-72
2022/06/23 02:14:03;;;;;;;14.53;11.40;;;17.10;99.90;;;;;;5074087;28;20614;-72
2022/06/23 02:16:45;;;;;;;13.67;11.53;;;17.10;99.90;;;;;;5061168;28;20630;-72
2022/06/23 02:19:34;;;;;;;13.20;11.87;;;17.10;99.90;;;;;;5074091;28;20582;-72
2022/06/23 02:22:34;;;;;;;13.60;12.10;;;17.00;99.90;;;;;;5073648;28;20630;-72
2022/06/23 02:25:03;;;;;;;15.17;12.37;;;17.00;99.90;;;;;;5056319;28;21015;-72
2022/06/23 02:27:57;;;;;;;13.73;12.20;;;16.90;99.90;;;;;;5073962;28;20610;-72
2022/06/23 02:30:44;;;;;;;14.27;12.67;;;16.90;99.90;;;;;;5063764;28;20638;-72
2022/06/23 02:33:30;;;;;;;14.87;11.97;;;16.80;99.90;;;;;;5074331;28;20567;-72
2022/06/23 02:36:02;;;;;;;14.17;12.70;;;16.70;99.90;;;;;;5073857;28;20582;-72
2022/06/23 02:38:48;;;;;;;13.07;11.80;;;16.60;99.90;;;;;;5074039;28;20574;-72
2022/06/23 02:41:18;;;;;;;16.20;12.50;;;16.60;99.90;;;;;;5056451;28;20614;-72
2022/06/23 02:43:47;;;;;;;18.60;12.60;;;16.60;99.90;;;;;;5073998;28;20582;-72
2022/06/23 02:46:19;;;;;;;19.97;13.50;;;16.70;99.90;;;;;;5073689;28;20610;-72
2022/06/23 02:49:00;;;;;;;13.20;11.80;;;16.70;99.90;;;;;;5073954;28;20658;-72
2022/06/23 02:51:33;;;;;;;16.30;12.83;;;16.70;99.90;;;;;;5072181;28;20630;-72
2022/06/23 02:54:33;;;;;;;19.40;11.30;;;16.80;99.90;;;;;;5074253;28;20577;-72
2022/06/23 02:57:13;;;;;;;13.07;11.20;;;16.80;99.90;;;;;;5072325;28;21016;-72
2022/06/23 03:00:12;;;;;;;11.80;10.70;;;16.80;99.90;;;;;;5073904;28;20574;-72
2022/06/23 03:03:12;;;;;;;11.30;10.20;;;16.80;99.90;;;;;;5073772;28;20581;-72
2022/06/23 03:05:52;;;;;;;15.63;11.60;;;16.90;99.90;;;;;;5022422;28;20618;-72
2022/06/23 03:08:49;;;;;;;11.07;9.97;;;16.90;99.90;;;;;;5073050;28;20657;-72
2022/06/23 03:14:22;;;;;;;12.57;10.67;;;17.00;99.90;;;;;;5073394;28;20610;-72
2022/06/23 03:16:54;;;;;;;11.97;10.40;;;17.10;99.90;;;;;;5073804;28;20566;-71
2022/06/23 03:19:29;;;;;;;14.50;10.10;;;17.10;99.90;;;;;;5073435;28;20574;-72
2022/06/23 03:22:05;;;;;;;15.67;10.87;;;17.10;99.90;;;;;;5072745;28;20622;-71
2022/06/23 03:24:47;;;;;;;15.67;11.90;;;17.10;99.90;;;;;;5073716;28;20574;-71
2022/06/23 03:27:27;;;;;;;21.90;12.30;;;17.00;99.90;;;;;;5073420;28;20606;-71
2022/06/23 03:29:57;;;;;;;13.37;10.67;;;17.10;99.90;;;;;;5073332;28;20638;-72
2022/06/23 03:32:28;;;;;;;12.60;11.30;;;17.10;99.90;;;;;;5073548;28;20579;-71
2022/06/23 03:35:25;;;;;;;18.33;12.20;;;17.10;99.90;;;;;;5073289;28;20635;-72
2022/06/23 03:38:20;;;;;;;10.40;9.50;;;17.10;99.90;;;;;;5065210;28;20627;-72
2022/06/23 03:43:54;;;;;;;39.83;11.33;;;17.10;99.90;;;;;;5072999;28;21088;-71
2022/06/23 03:46:33;;;;;;;13.23;8.70;;;17.10;99.90;;;;;;5073213;28;20621;-71
2022/06/23 03:49:43;;;;;;;14.93;10.17;;;17.10;99.90;;;;;;5072680;28;20654;-71
2022/06/23 03:52:36;;;;;;;12.90;9.10;;;17.10;99.90;;;;;;5072751;28;20609;-72
2022/06/23 03:55:26;;;;;;;9.97;9.00;;;17.10;99.90;;;;;;5072536;28;21063;-72
2022/06/23 03:58:03;;;;;;;11.27;9.47;;;17.00;99.90;;;;;;5072321;28;20610;-72
2022/06/23 04:00:37;;;;;;;10.37;9.50;;;17.00;99.90;;;;;;5072772;28;20918;-72
2022/06/23 04:03:30;;;;;;;14.07;10.10;;;16.90;99.90;;;;;;5072994;28;20569;-72
2022/06/23 04:05:56;;;;;;;13.27;9.00;;;16.90;99.90;;;;;;5072479;28;20583;-72
2022/06/23 04:08:40;;;;;;;11.23;10.33;;;16.90;99.90;;;;;;5072532;28;20626;-72
2022/06/23 04:13:59;;;;;;;16.13;9.30;;;16.80;99.90;;;;;;5073511;28;20601;-72
2022/06/23 04:16:25;;;;;;;9.63;8.90;;;16.90;99.90;;;;;;5076495;28;20582;-72
2022/06/23 04:18:53;;;;;;;11.93;10.50;;;16.90;99.90;;;;;;5076277;28;20723;-72
2022/06/23 04:21:24;;;;;;;12.07;10.70;;;17.00;99.90;;;;;;5076326;28;21026;-72
2022/06/23 04:23:54;;;;;;;10.90;10.00;;;17.00;99.90;;;;;;5075980;28;20578;-72
2022/06/23 04:26:40;;;;;;;12.57;11.20;;;17.10;99.90;;;;;;5075599;28;20605;-72
2022/06/23 04:29:11;;;;;;;12.27;11.07;;;17.10;99.90;;;;;;5075915;28;20662;-72
2022/06/23 04:31:51;;;;;;;10.47;9.50;;;17.10;99.90;;;;;;5058886;28;20597;-72
2022/06/23 04:34:25;;;;;;;16.80;11.13;;;17.10;99.90;;;;;;5058972;28;20929;-71
2022/06/23 04:36:53;;;;;;;12.43;9.60;;;17.10;99.90;;;;;;5075792;28;21152;-72
2022/06/23 04:39:34;;;;;;;15.70;11.60;;;17.30;99.90;;;;;;5075797;28;21172;-72
2022/06/23 04:42:21;;;;;;;11.80;9.93;;;17.40;99.90;;;;;;5058375;28;20630;-72
2022/06/23 04:44:51;;;;;;;12.73;11.43;;;17.50;99.90;;;;;;5075891;28;20679;-71
2022/06/23 04:47:23;;;;;;;15.10;11.87;;;17.60;99.90;;;;;;5075282;28;20745;-72
2022/06/23 04:49:54;;;;;;;17.43;12.53;;;17.60;99.90;;;;;;5075789;28;20646;-71
2022/06/23 04:52:27;;;;;;;13.87;12.27;;;17.70;99.90;;;;;;5076131;28;20582;-71
2022/06/23 04:55:26;;;;;;;41.93;14.70;;;17.90;99.90;;;;;;5074605;28;20625;-71
2022/06/23 04:58:01;;;;;;;16.10;12.47;;;18.10;99.90;;;;;;5075570;28;20574;-71
2022/06/23 05:00:27;;;;;;;15.00;10.43;;;18.30;99.90;;;;;;5075772;28;20636;-72
2022/06/23 05:03:01;;;;;;;11.70;10.40;;;18.50;99.90;;;;;;5075617;28;21172;-72
2022/06/23 05:05:31;;;;;;;11.90;10.63;;;18.70;99.90;;;;;;5057290;28;20667;-72
2022/06/23 05:08:23;;;;;;;12.07;10.80;;;18.80;99.90;;;;;;5075429;28;20650;-71
2022/06/23 05:11:07;;;;;;;14.60;10.90;;;18.70;99.90;;;;;;5075206;28;20692;-71
2022/06/23 05:13:52;;;;;;;17.83;12.27;;;18.70;99.90;;;;;;5075055;28;20622;-72
2022/06/23 05:16:40;;;;;;;17.00;13.70;;;18.80;99.90;;;;;;5075776;28;20573;-71
2022/06/23 05:19:10;;;;;;;17.73;14.47;;;19.00;99.90;;;;;;5057829;28;20626;-71
2022/06/23 05:21:45;;;;;;;24.63;16.10;;;19.10;99.90;;;;;;5057169;28;20621;-71
2022/06/23 05:24:21;;;;;;;22.90;14.80;;;19.00;99.90;;;;;;5074437;28;20610;-72
2022/06/23 05:26:52;;;;;;;35.10;21.17;;;19.10;99.90;;;;;;5075434;28;21199;-72
2022/06/23 05:29:28;;;;;;;84.13;28.50;;;19.10;99.90;;;;;;5075103;28;20644;-71
2022/06/23 05:31:59;;;;;;;48.80;25.70;;;19.00;99.90;;;;;;5085676;28;20628;-77
2022/06/23 05:34:29;;;;;;;40.73;25.23;;;19.00;99.90;;;;;;5088089;28;20784;-78
2022/06/23 05:37:17;;;;;;;56.13;26.27;;;19.00;99.90;;;;;;5072056;28;20610;-78
2022/06/23 05:40:24;;;;;;;39.83;24.03;;;19.00;99.90;;;;;;5088440;28;20632;-77
2022/06/23 05:42:54;;;;;;;36.83;21.67;;;19.20;99.90;;;;;;5088981;28;20589;-78
2022/06/23 05:45:24;;;;;;;38.77;23.60;;;19.30;99.90;;;;;;5070749;28;20621;-78
2022/06/23 05:47:51;;;;;;;35.47;22.80;;;19.40;99.90;;;;;;5087143;28;20634;-77
2022/06/23 05:50:29;;;;;;;33.27;19.77;;;19.50;99.90;;;;;;5084935;28;20663;-77
2022/06/23 05:53:05;;;;;;;33.43;22.80;;;19.60;99.90;;;;;;5086759;28;20620;-79
2022/06/23 05:55:43;;;;;;;31.90;22.10;;;19.30;99.90;;;;;;5086202;28;21100;-78
2022/06/23 05:58:21;;;;;;;27.60;20.67;;;19.30;99.90;;;;;;5082902;28;20555;-77
2022/06/23 06:00:55;;;;;;;35.07;20.33;;;19.40;99.90;;;;;;5075501;28;20701;-75
2022/06/23 06:03:40;;;;;;;32.50;21.33;;;19.60;99.90;;;;;;5076376;28;20631;-74
2022/06/23 06:06:07;;;;;;;37.07;21.80;;;19.70;99.90;;;;;;5058755;28;20654;-75
2022/06/23 06:11:32;;;;;;;29.73;20.10;;;19.60;99.90;;;;;;5062088;28;20614;-76
2022/06/23 06:14:01;;;;;;;26.27;20.60;;;19.90;99.90;;;;;;5060334;28;20621;-76
2022/06/23 06:16:28;;;;;;;24.30;19.73;;;19.90;99.90;;;;;;5076829;28;20718;-77
2022/06/23 06:18:55;;;;;;;24.73;18.57;;;20.00;99.90;;;;;;5058676;28;20610;-76
2022/06/23 06:21:23;;;;;;;21.83;18.60;;;20.10;99.90;;;;;;5076791;28;20689;-77
2022/06/23 06:24:01;;;;;;;20.30;18.10;;;20.10;99.90;;;;;;5060326;28;20625;-77
2022/06/23 06:26:35;;;;;;;22.93;20.53;;;20.30;99.90;;;;;;5075886;28;20940;-76
2022/06/23 06:29:23;;;;;;;21.57;18.97;;;20.50;99.90;;;;;;5074231;28;20634;-75
2022/06/23 06:32:39;;;;;;;24.17;20.03;;;20.60;99.90;;;;;;5076328;28;21142;-75
2022/06/23 06:35:14;;;;;;;21.93;19.43;;;20.50;99.90;;;;;;5056517;28;21232;-76
2022/06/23 06:37:44;;;;;;;23.33;20.63;;;20.50;99.90;;;;;;5075921;28;20614;-76
2022/06/23 06:40:12;;;;;;;24.53;20.20;;;20.60;99.90;;;;;;5076899;28;20590;-77
2022/06/23 06:42:47;;;;;;;21.80;19.33;;;20.80;99.90;;;;;;5058283;28;20689;-76
2022/06/23 06:45:17;;;;;;;22.90;18.47;;;20.90;99.90;;;;;;5062877;28;20606;-76
2022/06/23 06:47:44;;;;;;;25.30;20.03;;;20.70;99.90;;;;;;5083419;28;20633;-77
2022/06/23 06:50:31;;;;;;;25.53;21.33;;;20.70;99.90;;;;;;5046674;28;20659;-77
2022/06/23 06:53:01;;;;;;;21.63;19.30;;;20.70;99.90;;;;;;5058569;28;20634;-76
2022/06/23 06:55:41;;;;;;;20.23;18.13;;;21.20;99.90;;;;;;5075040;28;20606;-76
2022/06/23 06:58:11;;;;;;;25.63;17.77;;;21.50;99.90;;;;;;5073226;28;20586;-71
2022/06/23 07:00:47;;;;;;;21.40;18.77;;;21.50;99.90;;;;;;5073111;28;20697;-71
2022/06/23 07:03:17;;;;;;;28.53;17.97;;;21.90;99.90;;;;;;5073673;28;20570;-71
2022/06/23 07:05:52;;;;;;;21.40;17.53;;;21.70;99.90;;;;;;5073362;28;21164;-71
2022/06/23 07:08:25;;;;;;;23.67;18.90;;;21.90;99.90;;;;;;5073153;28;20977;-71
2022/06/23 07:11:03;;;;;;;19.07;17.20;;;22.00;99.90;;;;;;5073113;28;20634;-71
2022/06/23 07:13:56;;;;;;;19.90;16.50;;;22.10;99.90;;;;;;5073420;28;20578;-71
2022/06/23 07:16:28;;;;;;;27.17;20.50;;;22.20;99.90;;;;;;5060362;28;20737;-71
2022/06/23 07:19:13;;;;;;;18.67;16.63;;;22.00;99.90;;;;;;5073415;28;20577;-72
2022/06/23 07:21:55;;;;;;;15.63;13.93;;;22.20;99.90;;;;;;5073021;28;20629;-72
2022/06/23 07:24:34;;;;;;;16.00;14.30;;;22.10;99.90;;;;;;5055080;28;20676;-71
2022/06/23 07:27:10;;;;;;;15.73;14.20;;;22.20;99.90;;;;;;5073210;28;20583;-71
2022/06/23 07:30:01;;;;;;;16.90;15.20;;;22.20;99.90;;;;;;5072783;28;20761;-71
2022/06/23 07:32:57;;;;;;;15.43;13.47;;;22.00;99.90;;;;;;5072991;28;20591;-71
2022/06/23 07:35:32;;;;;;;17.30;12.60;;;21.90;99.90;;;;;;5073179;28;20627;-71
2022/06/23 07:38:16;;;;;;;15.93;12.30;;;22.10;99.90;;;;;;5072828;28;20597;-71
2022/06/23 07:40:50;;;;;;;14.93;13.40;;;22.30;99.90;;;;;;5072715;28;21117;-71
2022/06/23 07:43:44;;;;;;;14.50;11.90;;;22.50;99.90;;;;;;5072770;28;20578;-71
2022/06/23 07:46:12;;;;;;;21.47;14.27;;;22.90;99.90;;;;;;5072750;28;20632;-71
2022/06/23 07:48:39;;;;;;;14.17;11.90;;;23.00;99.90;;;;;;5073080;28;20656;-71
2022/06/23 07:51:07;;;;;;;13.23;11.93;;;22.80;99.90;;;;;;5076568;28;20993;-71
2022/06/23 07:53:50;;;;;;;17.93;10.80;;;22.80;99.90;;;;;;5076368;28;20610;-71
2022/06/23 07:56:20;;;;;;;12.07;9.90;;;23.20;99.90;;;;;;5076568;28;20569;-71
2022/06/23 07:58:50;;;;;;;11.60;10.33;;;23.60;99.90;;;;;;5076811;28;20968;-72
2022/06/23 08:01:37;;;;;;;13.20;10.03;;;23.90;99.90;;;;;;5077037;28;20606;-72
2022/06/23 08:04:10;;;;;;;12.73;11.33;;;24.10;99.90;;;;;;5076732;28;20655;-71
2022/06/23 08:06:37;;;;;;;12.17;10.17;;;24.10;99.90;;;;;;5076298;28;20993;-72
2022/06/23 08:09:39;;;;;;;16.30;8.87;;;24.10;99.90;;;;;;5076407;28;21009;-72
2022/06/23 08:17:52;;;;;;;13.30;11.83;;;23.90;99.90;;;;;;5076271;28;20594;-73
2022/06/23 08:20:21;;;;;;;14.67;9.73;;;23.50;99.90;;;;;;5076636;28;21219;-73
2022/06/23 08:22:49;;;;;;;13.47;8.77;;;24.00;99.90;;;;;;5076746;28;20613;-73
2022/06/23 08:25:16;;;;;;;11.90;9.30;;;24.40;99.90;;;;;;5075903;28;20622;-72
2022/06/23 08:27:45;;;;;;;10.97;9.63;;;24.00;99.90;;;;;;5076187;28;20626;-72
2022/06/23 08:30:17;;;;;;;11.40;8.70;;;23.90;99.90;;;;;;5076440;28;21196;-73
2022/06/23 08:32:49;;;;;;;17.37;10.10;;;24.30;99.90;;;;;;5076022;28;20586;-73
2022/06/23 08:35:31;;;;;;;10.20;9.20;;;24.60;99.90;;;;;;5076001;28;20615;-73
2022/06/23 08:38:18;;;;;;;11.13;8.83;;;24.40;99.90;;;;;;5076329;28;20582;-73
2022/06/23 08:41:03;;;;;;;14.20;9.77;;;24.40;99.90;;;;;;5075746;28;20626;-74
2022/06/23 08:43:45;;;;;;;10.30;8.20;;;24.10;99.90;;;;;;5075789;28;20999;-73
2022/06/23 08:46:28;;;;;;;14.80;9.40;;;24.20;99.90;;;;;;5075842;28;20582;-72
2022/06/23 08:49:02;;;;;;;14.10;8.90;;;24.50;99.90;;;;;;5075818;28;20638;-73
2022/06/23 08:51:40;;;;;;;13.17;9.27;;;24.80;99.90;;;;;;5075772;28;20589;-73
2022/06/23 08:54:41;;;;;;;8.93;8.23;;;24.80;99.90;;;;;;5075579;28;20689;-73
2022/06/23 08:57:16;;;;;;;12.37;7.80;;;25.10;99.90;;;;;;5075482;28;20570;-71
2022/06/23 08:59:56;;;;;;;12.60;8.50;;;25.20;99.90;;;;;;5075333;28;20580;-71
2022/06/23 09:02:42;;;;;;;12.90;8.43;;;25.30;99.90;;;;;;5075787;28;20567;-71
2022/06/23 09:05:28;;;;;;;12.33;8.43;;;25.40;99.90;;;;;;5075039;28;20622;-70
2022/06/23 09:08:18;;;;;;;13.90;9.33;;;25.60;99.90;;;;;;5075017;28;21261;-70
2022/06/23 09:11:41;;;;;;;12.03;8.70;;;25.10;99.90;;;;;;5074749;28;20669;-71
2022/06/23 09:14:24;;;;;;;11.20;7.13;;;25.40;99.90;;;;;;4996099;28;21204;-76
2022/06/23 09:16:56;;;;;;;12.70;8.63;;;25.80;99.90;;;;;;4996829;28;20586;-79
2022/06/23 09:20:11;;;;;;;12.50;7.90;;;25.50;99.90;;;;;;5062870;28;20633;-77
2022/06/23 09:23:04;;;;;;;15.23;8.33;;;25.40;99.90;;;;;;5064462;28;21003;-71
2022/06/23 09:25:55;;;;;;;11.40;7.40;;;25.30;99.90;;;;;;5071530;28;20618;-72
2022/06/23 09:28:46;;;;;;;8.37;7.50;;;25.30;99.90;;;;;;5075138;28;20575;-72
2022/06/23 09:31:57;;;;;;;10.83;7.23;;;25.20;99.90;;;;;;5075019;28;20650;-70
2022/06/23 09:34:44;;;;;;;12.00;7.23;;;26.00;99.90;;;;;;5066455;28;20634;-71
2022/06/23 09:37:26;;;;;;;11.13;7.70;;;26.60;99.90;;;;;;5074436;28;21132;-71
2022/06/23 09:39:59;;;;;;;11.17;7.40;;;26.70;99.90;;;;;;5074532;28;20581;-71
2022/06/23 09:42:32;;;;;;;7.83;6.20;;;26.80;99.90;;;;;;5074622;28;20625;-72
2022/06/23 09:45:17;;;;;;;12.33;8.23;;;27.10;99.90;;;;;;5074891;28;21137;-72
2022/06/23 09:48:06;;;;;;;10.43;7.17;;;26.70;99.90;;;;;;5075134;28;20859;-72
2022/06/23 09:50:59;;;;;;;11.33;7.90;;;26.80;99.90;;;;;;5075096;28;20634;-72
2022/06/23 09:53:37;;;;;;;11.17;8.00;;;26.90;99.90;;;;;;5074927;28;20571;-73
2022/06/23 09:56:41;;;;;;;12.50;8.33;;;26.40;99.90;;;;;;5075343;28;20815;-75
2022/06/23 09:59:25;;;;;;;12.00;7.30;;;26.30;99.90;;;;;;5075091;28;20623;-74
2022/06/23 10:02:13;;;;;;;13.90;6.80;;;26.20;99.90;;;;;;5074513;28;20570;-74
2022/06/23 10:04:48;;;;;;;11.10;7.13;;;26.70;99.90;;;;;;5074504;28;20581;-73
2022/06/23 10:07:35;;;;;;;11.43;5.90;;;27.20;99.90;;;;;;5075051;28;20664;-74
2022/06/23 10:10:08;;;;;;;6.67;5.50;;;27.40;99.90;;;;;;5075203;28;20637;-73
2022/06/23 10:12:53;;;;;;;8.80;5.00;;;27.50;99.90;;;;;;5073929;28;20571;-73
2022/06/23 10:15:28;;;;;;;9.07;5.17;;;27.70;99.90;;;;;;5074962;28;20978;-72
2022/06/23 10:18:19;;;;;;;8.10;4.87;;;27.90;99.90;;;;;;5074904;28;20585;-72
2022/06/23 10:20:49;;;;;;;7.27;5.83;;;27.50;99.90;;;;;;5074207;28;20610;-73
2022/06/23 10:23:54;;;;;;;13.73;5.67;;;27.70;99.90;;;;;;5073971;28;20969;-73
2022/06/23 10:26:29;;;;;;;6.20;5.07;;;28.00;99.90;;;;;;5074205;28;20716;-73
2022/06/23 10:28:55;;;;;;;6.03;4.50;;;27.90;99.90;;;;;;5073874;28;20730;-73
2022/06/23 10:31:29;;;;;;;14.03;4.87;;;28.00;99.90;;;;;;5074415;28;20656;-73
2022/06/23 10:34:31;;;;;;;13.07;5.13;;;27.90;99.90;;;;;;5073954;28;20727;-73
2022/06/23 10:37:32;;;;;;;11.80;5.57;;;28.20;99.90;;;;;;5058003;28;20571;-73
2022/06/23 10:40:11;;;;;;;7.30;4.80;;;28.30;99.90;;;;;;5073888;28;20589;-73
2022/06/23 10:42:52;;;;;;;8.50;5.17;;;28.10;99.90;;;;;;5073852;28;20681;-74
2022/06/23 10:45:38;;;;;;;12.27;4.53;;;28.20;99.90;;;;;;5073796;28;20630;-74
2022/06/23 10:48:23;;;;;;;7.43;4.40;;;28.50;99.90;;;;;;5073992;28;20688;-74
2022/06/23 10:51:13;;;;;;;4.93;4.30;;;28.70;99.90;;;;;;5056319;28;20658;-74
2022/06/23 10:53:54;;;;;;;7.97;5.57;;;28.90;99.90;;;;;;5073416;28;20622;-74
2022/06/23 10:56:50;;;;;;;11.23;5.43;;;28.80;99.90;;;;;;5073966;28;20901;-74
2022/06/23 10:59:45;;;;;;;7.40;4.27;;;28.90;99.90;;;;;;5073549;28;20626;-75
2022/06/23 11:02:49;;;;;;;6.30;3.90;;;29.10;99.90;;;;;;5073729;28;20563;-74
2022/06/23 11:05:31;;;;;;;8.47;4.47;;;29.10;99.90;;;;;;5073386;28;20625;-75
2022/06/23 11:08:38;;;;;;;8.63;4.37;;;28.80;99.90;;;;;;5073493;28;20707;-74
2022/06/23 11:11:23;;;;;;;6.47;4.00;;;29.20;99.90;;;;;;5073547;28;20673;-75
2022/06/23 11:13:58;;;;;;;6.97;4.07;;;29.70;99.90;;;;;;5073777;28;20582;-75
2022/06/23 11:16:57;;;;;;;7.47;4.10;;;29.80;99.90;;;;;;5073678;28;20675;-74
2022/06/23 11:19:57;;;;;;;6.77;4.23;;;29.40;99.90;;;;;;5073124;28;20618;-74
2022/06/23 11:22:45;;;;;;;7.13;4.40;;;29.60;99.90;;;;;;5073902;28;20579;-73
2022/06/23 11:25:32;;;;;;;6.53;4.00;;;29.70;99.90;;;;;;5077252;28;20591;-74
2022/06/23 11:28:08;;;;;;;7.40;4.43;;;30.30;99.90;;;;;;5077399;28;20590;-73
2022/06/23 11:30:37;;;;;;;6.30;4.53;;;30.70;99.90;;;;;;5077201;28;20652;-73
2022/06/23 11:33:26;;;;;;;11.83;5.07;;;30.60;99.90;;;;;;5076939;28;20628;-74
2022/06/23 11:36:17;;;;;;;10.10;4.50;;;30.00;99.90;;;;;;5077717;28;20719;-74
2022/06/23 11:39:09;;;;;;;6.73;4.50;;;29.70;99.90;;;;;;5078048;28;20624;-73
2022/06/23 11:41:41;;;;;;;10.23;5.40;;;30.30;99.90;;;;;;5078095;28;20663;-73
2022/06/23 11:44:43;;;;;;;10.43;4.23;;;30.70;99.90;;;;;;5077792;28;20618;-74
2022/06/23 11:47:27;;;;;;;5.73;4.40;;;30.20;99.90;;;;;;5078063;28;20755;-74
2022/06/23 11:50:02;;;;;;;9.17;4.53;;;30.90;99.90;;;;;;5077664;28;20658;-73
2022/06/23 11:52:38;;;;;;;8.80;4.50;;;31.60;99.90;;;;;;5077505;28;20617;-73
2022/06/23 11:55:17;;;;;;;7.23;4.43;;;32.00;99.90;;;;;;5077304;28;20582;-74
2022/06/23 11:58:02;;;;;;;7.90;6.53;;;31.40;99.90;;;;;;5059787;28;20622;-75
2022/06/23 12:00:56;;;;;;;7.80;4.40;;;32.40;99.90;;;;;;5059289;28;20598;-74
2022/06/23 12:03:42;;;;;;;7.47;5.20;;;33.10;99.90;;;;;;5077070;28;20629;-74
2022/06/23 12:06:21;;;;;;;9.00;4.70;;;32.20;99.90;;;;;;5077125;28;20640;-75
2022/06/23 12:09:08;;;;;;;7.80;5.13;;;33.00;99.90;;;;;;5077222;28;20610;-75
2022/06/23 12:11:37;;;;;;;10.97;5.00;;;33.10;99.90;;;;;;5076880;28;21211;-74
2022/06/23 12:14:08;;;;;;;7.57;5.20;;;32.90;99.90;;;;;;5077625;28;20636;-74
2022/06/23 12:16:45;;;;;;;8.70;4.70;;;32.40;99.90;;;;;;5077385;28;20622;-74
2022/06/23 12:19:17;;;;;;;10.47;4.47;;;32.40;99.90;;;;;;5077729;28;20566;-75
2022/06/23 12:21:49;;;;;;;9.43;4.73;;;32.10;99.90;;;;;;5077645;28;20697;-72
2022/06/23 12:24:33;;;;;;;9.87;5.80;;;32.60;99.90;;;;;;5058985;28;21064;-71
2022/06/23 12:27:14;;;;;;;14.47;5.07;;;32.90;99.90;;;;;;5077168;28;20583;-72
2022/06/23 12:29:48;;;;;;;6.90;4.20;;;33.20;99.90;;;;;;5076883;28;20764;-73
2022/06/23 12:32:45;;;;;;;6.90;4.50;;;33.50;99.90;;;;;;5059201;28;20587;-73
2022/06/23 12:35:33;;;;;;;5.40;4.50;;;34.10;99.90;;;;;;5074858;28;20675;-72
2022/06/23 12:38:45;;;;;;;6.47;5.23;;;33.60;99.90;;;;;;5076610;28;20602;-74
2022/06/23 12:41:21;;;;;;;8.30;4.93;;;33.80;99.90;;;;;;5072473;28;20629;-72
2022/06/23 12:44:03;;;;;;;7.80;4.63;;;34.50;99.90;;;;;;5077037;28;20678;-74
2022/06/23 12:47:07;;;;;;;9.20;4.47;;;34.70;99.90;;;;;;5057941;28;20995;-72
2022/06/23 12:49:36;;;;;;;13.27;4.80;;;35.30;99.90;;;;;;5077125;28;20965;-71
2022/06/23 12:52:41;;;;;;;7.40;4.90;;;35.50;99.90;;;;;;5075939;28;21018;-72
2022/06/23 12:55:20;;;;;;;6.60;4.40;;;35.00;99.90;;;;;;5064034;28;20630;-71
2022/06/23 12:58:13;;;;;;;7.70;4.30;;;35.50;99.90;;;;;;5076260;28;20594;-72
2022/06/23 13:01:07;;;;;;;11.27;4.30;;;34.20;99.90;;;;;;5058314;28;20630;-71
2022/06/23 13:03:52;;;;;;;12.60;5.20;;;35.20;99.90;;;;;;5075866;28;20593;-71
2022/06/23 13:06:50;;;;;;;6.80;4.53;;;35.80;99.90;;;;;;5074983;28;20653;-71
2022/06/23 13:09:42;;;;;;;6.40;4.50;;;35.50;99.90;;;;;;5075358;28;20985;-72
2022/06/23 13:12:11;;;;;;;12.13;5.43;;;36.60;99.90;;;;;;5075792;28;21146;-71
2022/06/23 13:14:59;;;;;;;9.77;4.90;;;36.10;99.90;;;;;;5075977;28;20614;-71
2022/06/23 13:18:08;;;;;;;8.93;4.97;;;35.40;99.90;;;;;;5075474;28;20674;-72
2022/06/23 13:20:49;;;;;;;11.90;4.63;;;35.90;99.90;;;;;;4994000;28;21220;-72
2022/06/23 13:23:32;;;;;;;9.80;4.13;;;36.20;99.90;;;;;;5071608;28;20607;-72
2022/06/23 13:26:10;;;;;;;8.70;5.37;;;37.10;99.90;;;;;;5075722;28;20581;-72
2022/06/23 13:28:40;;;;;;;7.40;4.07;;;36.70;99.90;;;;;;5076028;28;20581;-72
2022/06/23 13:31:38;;;;;;;7.83;4.87;;;36.70;99.90;;;;;;5075561;28;21167;-72
2022/06/23 13:34:14;;;;;;;10.10;5.47;;;37.40;99.90;;;;;;5071345;28;20629;-71
2022/06/23 13:36:56;;;;;;;11.10;4.83;;;38.30;99.90;;;;;;5074851;28;20574;-72
2022/06/23 13:39:52;;;;;;;7.60;4.47;;;38.70;99.90;;;;;;5075104;28;20991;-72
2022/06/23 13:42:55;;;;;;;8.13;4.50;;;38.10;99.90;;;;;;5057273;28;20622;-72
2022/06/23 13:45:37;;;;;;;9.50;4.97;;;38.40;99.90;;;;;;5062128;28;20632;-72
2022/06/23 13:48:31;;;;;;;6.47;4.83;;;37.40;99.90;;;;;;5074266;28;21197;-71
2022/06/23 13:51:24;;;;;;;7.80;4.70;;;36.30;99.90;;;;;;5060634;28;21251;-72
2022/06/23 13:53:59;;;;;;;6.50;4.77;;;35.20;99.90;;;;;;5074885;28;20582;-72
2022/06/23 13:56:44;;;;;;;10.33;4.70;;;34.60;99.90;;;;;;5056843;28;20625;-72
2022/06/23 13:59:18;;;;;;;7.57;4.70;;;36.00;99.90;;;;;;5074840;28;20988;-72
2022/06/23 14:02:01;;;;;;;11.37;4.80;;;36.80;99.90;;;;;;5074602;28;20628;-73
2022/06/23 14:04:38;;;;;;;11.93;5.43;;;37.60;99.90;;;;;;5074914;28;20589;-71